createdAt,value
2019-05-20T00:02:25.868Z,100.00
2019-05-20T00:05:09.439Z,100.00
2019-05-20T00:07:44.022Z,100.00
2019-05-20T00:10:22.032Z,100.00
2019-05-20T00:13:00.249Z,100.00
2019-05-20T00:15:44.125Z,100.00
2019-05-20T00:18:21.296Z,100.00
2019-05-20T00:20:55.295Z,100.00
2019-05-20T00:23:39.386Z,100.00
2019-05-20T00:26:18.134Z,100.00
2019-05-20T00:29:04.645Z,100.00
2019-05-20T00:31:39.367Z,100.00
2019-05-20T00:34:12.024Z,100.00
2019-05-20T00:36:45.455Z,100.00
2019-05-20T00:39:22.313Z,100.00
2019-05-20T00:42:09.466Z,100.00
2019-05-20T00:48:16.886Z,100.00
2019-05-20T00:50:56.000Z,100.00
2019-05-20T00:53:29.227Z,100.00
2019-05-20T00:56:01.902Z,100.00
2019-05-20T00:58:34.564Z,100.00
2019-05-20T01:01:07.870Z,100.00
2019-05-20T01:03:41.617Z,100.00
2019-05-20T01:06:15.027Z,100.00
2019-05-20T01:08:49.954Z,100.00
2019-05-20T01:11:24.468Z,100.00
2019-05-20T01:13:57.039Z,100.00
2019-05-20T01:16:29.750Z,100.00
2019-05-20T01:19:02.349Z,100.00
2019-05-20T01:21:35.866Z,100.00
2019-05-20T01:24:09.160Z,100.00
2019-05-20T01:26:41.688Z,100.00
2019-05-20T01:29:14.323Z,100.00
2019-05-20T01:31:47.122Z,100.00
2019-05-20T01:34:20.320Z,100.00
2019-05-20T01:36:53.717Z,100.00
2019-05-20T01:39:27.096Z,100.00
2019-05-20T01:41:59.848Z,100.00
2019-05-20T01:44:33.373Z,100.00
2019-05-20T01:47:07.924Z,100.00
2019-05-20T01:49:41.937Z,100.00
2019-05-20T01:52:15.169Z,100.00
2019-05-20T01:54:56.745Z,100.00
2019-05-20T01:57:50.497Z,100.00
2019-05-20T02:00:24.625Z,100.00
2019-05-20T02:02:57.334Z,100.00
2019-05-20T02:05:29.959Z,100.00
2019-05-20T02:08:07.507Z,100.00
2019-05-20T02:10:40.272Z,100.00
2019-05-20T02:13:12.773Z,100.00
2019-05-20T02:15:54.336Z,100.00
2019-05-20T02:18:27.161Z,100.00
2019-05-20T02:20:59.727Z,100.00
2019-05-20T02:23:32.294Z,100.00
2019-05-20T02:26:04.872Z,100.00
2019-05-20T02:28:37.468Z,100.00
2019-05-20T02:31:10.052Z,100.00
2019-05-20T02:33:51.599Z,100.00
2019-05-20T02:36:26.964Z,100.00
2019-05-20T02:38:59.705Z,100.00
2019-05-20T02:41:32.460Z,100.00
2019-05-20T02:44:05.016Z,100.00
2019-05-20T02:46:37.816Z,100.00
2019-05-20T02:49:10.392Z,100.00
2019-05-20T02:51:42.999Z,100.00
2019-05-20T02:54:15.458Z,100.00
2019-05-20T02:56:48.081Z,100.00
2019-05-20T02:59:21.882Z,100.00
2019-05-20T03:01:54.746Z,100.00
2019-05-20T03:04:27.455Z,100.00
2019-05-20T03:07:00.237Z,100.00
2019-05-20T03:09:33.212Z,100.00
2019-05-20T03:12:05.833Z,100.00
2019-05-20T03:14:38.378Z,100.00
2019-05-20T03:17:11.087Z,100.00
2019-05-20T03:19:43.625Z,100.00
2019-05-20T03:22:18.519Z,100.00
2019-05-20T03:24:51.117Z,100.00
2019-05-20T03:27:25.762Z,100.00
2019-05-20T03:30:00.740Z,100.00
2019-05-20T03:32:36.587Z,100.00
2019-05-20T03:35:13.962Z,100.00
2019-05-20T03:37:48.633Z,100.00
2019-05-20T03:40:22.263Z,100.00
2019-05-20T03:42:54.966Z,100.00
2019-05-20T03:45:28.234Z,100.00
2019-05-20T03:48:00.991Z,100.00
2019-05-20T03:50:34.271Z,100.00
2019-05-20T03:53:07.381Z,100.00
2019-05-20T03:55:39.890Z,100.00
2019-05-20T03:58:13.798Z,100.00
2019-05-20T04:00:47.889Z,100.00
2019-05-20T04:03:20.657Z,100.00
2019-05-20T04:05:55.143Z,100.00
2019-05-20T04:08:30.653Z,100.00
2019-05-20T04:11:03.745Z,100.00
2019-05-20T04:13:36.483Z,100.00
2019-05-20T04:16:10.008Z,100.00
2019-05-20T04:18:43.871Z,100.00
2019-05-20T04:21:16.504Z,100.00
2019-05-20T04:23:49.399Z,100.00
2019-05-20T04:26:22.137Z,100.00
2019-05-20T04:28:55.354Z,100.00
2019-05-20T04:31:28.007Z,100.00
2019-05-20T04:34:01.029Z,100.00
2019-05-20T04:36:33.567Z,100.00
2019-05-20T04:39:08.675Z,100.00
2019-05-20T04:41:41.427Z,100.00
2019-05-20T04:44:14.521Z,100.00
2019-05-20T04:46:47.222Z,100.00
2019-05-20T04:49:19.901Z,100.00
2019-05-20T04:51:52.800Z,100.00
2019-05-20T04:54:25.534Z,100.00
2019-05-20T04:56:58.073Z,100.00
2019-05-20T04:59:30.510Z,100.00
2019-05-20T05:02:03.241Z,100.00
2019-05-20T05:04:35.809Z,100.00
2019-05-20T05:07:08.672Z,100.00
2019-05-20T05:09:41.145Z,100.00
2019-05-20T05:12:17.742Z,100.00
2019-05-20T05:14:50.259Z,100.00
2019-05-20T05:17:22.853Z,100.00
2019-05-20T05:19:55.691Z,100.00
2019-05-20T05:22:28.421Z,100.00
2019-05-20T05:25:00.986Z,100.00
2019-05-20T05:27:34.412Z,100.00
2019-05-20T05:30:07.955Z,100.00
2019-05-20T05:32:41.563Z,100.00
2019-05-20T05:35:17.403Z,100.00
2019-05-20T05:37:50.148Z,100.00
2019-05-20T05:40:32.565Z,100.00
2019-05-20T05:43:05.281Z,100.00
2019-05-20T05:45:39.285Z,100.00
2019-05-20T05:48:12.133Z,100.00
2019-05-20T05:50:44.768Z,100.00
2019-05-20T05:53:17.813Z,100.00
2019-05-20T05:55:52.860Z,100.00
2019-05-20T05:58:26.471Z,100.00
2019-05-20T06:00:59.005Z,100.00
2019-05-20T06:03:31.616Z,100.00
2019-05-20T06:06:12.065Z,100.00
2019-05-20T06:08:46.085Z,100.00
2019-05-20T06:11:19.383Z,100.00
2019-05-20T06:13:53.179Z,100.00
2019-05-20T06:16:36.373Z,100.00
2019-05-20T06:19:09.950Z,100.00
2019-05-20T06:21:42.688Z,100.00
2019-05-20T06:24:15.250Z,100.00
2019-05-20T06:26:48.717Z,100.00
2019-05-20T06:29:21.424Z,100.00
2019-05-20T06:31:54.137Z,100.00
2019-05-20T06:34:26.885Z,100.00
2019-05-20T06:37:08.143Z,100.00
2019-05-20T06:39:40.758Z,100.00
2019-05-20T06:42:13.427Z,100.00
2019-05-20T06:44:52.940Z,100.00
2019-05-20T06:47:28.933Z,100.00
2019-05-20T06:50:05.800Z,100.00
2019-05-20T06:52:40.621Z,100.00
2019-05-20T06:55:14.902Z,100.00
2019-05-20T06:57:48.799Z,100.00
2019-05-20T07:00:35.872Z,100.00
2019-05-20T07:03:08.775Z,100.00
2019-05-20T07:05:41.398Z,100.00
2019-05-20T07:08:13.931Z,100.00
2019-05-20T07:10:47.700Z,100.00
2019-05-20T07:13:22.484Z,100.00
2019-05-20T07:15:56.865Z,100.00
2019-05-20T07:18:30.354Z,100.00
2019-05-20T07:21:03.643Z,100.00
2019-05-20T07:23:36.342Z,100.00
2019-05-20T07:26:09.059Z,100.00
2019-05-20T07:28:43.315Z,100.00
2019-05-20T07:31:15.966Z,100.00
2019-05-20T07:33:48.734Z,100.00
2019-05-20T07:36:26.755Z,100.00
2019-05-20T07:39:02.274Z,100.00
2019-05-20T07:41:41.165Z,100.00
2019-05-20T07:44:14.599Z,100.00
2019-05-20T07:46:48.349Z,100.00
2019-05-20T07:49:23.950Z,100.00
2019-05-20T07:51:57.948Z,100.00
2019-05-20T07:54:31.270Z,100.00
2019-05-20T07:57:12.013Z,100.00
2019-05-20T07:59:52.824Z,100.00
2019-05-20T08:02:28.946Z,100.00
2019-05-20T08:05:05.423Z,100.00
2019-05-20T08:07:51.462Z,100.00
2019-05-20T08:10:26.594Z,99.84
2019-05-20T08:12:59.236Z,99.77
2019-05-20T08:15:32.528Z,99.61
2019-05-20T08:18:05.422Z,98.69
2019-05-20T08:20:38.002Z,98.30
2019-05-20T08:23:11.718Z,98.21
2019-05-20T08:25:45.766Z,98.23
2019-05-20T08:28:18.407Z,98.27
2019-05-20T08:30:53.275Z,98.23
2019-05-20T08:33:27.980Z,97.46
2019-05-20T08:36:00.671Z,97.04
2019-05-20T08:38:37.733Z,96.72
2019-05-20T08:41:12.163Z,97.01
2019-05-20T08:43:45.566Z,96.73
2019-05-20T08:46:18.050Z,97.00
2019-05-20T08:48:51.374Z,97.10
2019-05-20T08:51:24.601Z,96.99
2019-05-20T08:54:00.733Z,96.58
2019-05-20T08:56:35.647Z,96.32
2019-05-20T08:59:08.348Z,95.91
2019-05-20T09:01:43.857Z,95.84
2019-05-20T09:04:18.591Z,95.07
2019-05-20T09:06:54.372Z,94.61
2019-05-20T09:09:29.237Z,94.82
2019-05-20T09:12:04.476Z,94.83
2019-05-20T09:14:43.057Z,94.93
2019-05-20T09:17:17.980Z,94.41
2019-05-20T09:19:50.781Z,94.22
2019-05-20T09:22:25.807Z,93.81
2019-05-20T09:24:58.578Z,93.32
2019-05-20T09:27:31.382Z,92.94
2019-05-20T09:30:07.324Z,92.73
2019-05-20T09:32:43.386Z,92.35
2019-05-20T09:35:16.740Z,92.12
2019-05-20T09:37:49.373Z,91.99
2019-05-20T09:40:38.695Z,91.97
2019-05-20T09:43:12.101Z,91.59
2019-05-20T09:45:44.704Z,91.60
2019-05-20T09:48:19.805Z,91.62
2019-05-20T09:50:55.809Z,91.52
2019-05-20T09:53:46.885Z,91.49
2019-05-20T09:56:24.473Z,90.20
2019-05-20T09:59:00.771Z,90.16
2019-05-20T10:01:38.663Z,89.76
2019-05-20T10:04:26.091Z,90.68
2019-05-20T10:07:19.344Z,90.67
2019-05-20T10:09:58.652Z,90.55
2019-05-20T10:12:45.476Z,90.05
2019-05-20T10:15:24.967Z,89.54
2019-05-20T10:18:36.075Z,89.36
2019-05-20T10:21:14.162Z,89.52
2019-05-20T10:23:57.781Z,89.95
2019-05-20T10:26:56.025Z,89.47
2019-05-20T10:29:31.466Z,88.89
2019-05-20T10:32:04.792Z,88.33
2019-05-20T10:34:39.054Z,88.07
2019-05-20T10:37:11.750Z,88.08
2019-05-20T10:39:45.070Z,87.54
2019-05-20T10:42:29.605Z,86.67
2019-05-20T10:45:07.387Z,86.10
2019-05-20T10:47:40.016Z,85.99
2019-05-20T10:50:16.871Z,85.04
2019-05-20T10:52:50.414Z,85.29
2019-05-20T10:55:26.021Z,84.72
2019-05-20T10:58:00.823Z,84.42
2019-05-20T11:00:36.718Z,83.46
2019-05-20T11:03:13.247Z,83.56
2019-05-20T11:05:48.039Z,82.98
2019-05-20T11:08:21.655Z,82.92
2019-05-20T11:10:55.975Z,83.11
2019-05-20T11:13:30.069Z,82.30
2019-05-20T11:16:19.598Z,82.66
2019-05-20T11:18:57.880Z,82.80
2019-05-20T11:21:35.407Z,82.47
2019-05-20T11:24:09.112Z,81.84
2019-05-20T11:26:42.859Z,82.44
2019-05-20T11:29:15.556Z,82.45
2019-05-20T11:31:48.566Z,82.84
2019-05-20T11:34:21.950Z,83.40
2019-05-20T11:36:54.518Z,83.59
2019-05-20T11:39:33.224Z,83.82
2019-05-20T11:42:12.717Z,84.56
2019-05-20T11:44:45.730Z,84.38
2019-05-20T11:47:18.818Z,83.68
2019-05-20T11:49:54.399Z,83.27
2019-05-20T11:52:28.618Z,82.77
2019-05-20T11:55:01.912Z,83.01
2019-05-20T11:57:35.649Z,82.73
2019-05-20T12:00:13.679Z,82.86
2019-05-20T12:02:47.010Z,82.77
2019-05-20T12:05:22.431Z,82.85
2019-05-20T12:07:58.668Z,83.31
2019-05-20T12:10:32.984Z,83.20
2019-05-20T12:13:09.235Z,83.58
2019-05-20T12:15:43.205Z,83.72
2019-05-20T12:18:17.006Z,83.21
2019-05-20T12:20:51.236Z,83.78
2019-05-20T12:23:25.752Z,83.82
2019-05-20T12:25:58.795Z,83.86
2019-05-20T12:28:31.606Z,83.69
2019-05-20T12:31:06.237Z,83.22
2019-05-20T12:33:42.225Z,82.96
2019-05-20T12:36:17.786Z,83.58
2019-05-20T12:38:53.848Z,83.93
2019-05-20T12:41:28.042Z,83.99
2019-05-20T12:44:11.930Z,84.04
2019-05-20T12:46:50.567Z,84.11
2019-05-20T12:49:24.789Z,83.75
2019-05-20T12:52:00.106Z,83.61
2019-05-20T12:54:33.488Z,83.56
2019-05-20T12:57:07.776Z,84.02
2019-05-20T12:59:41.481Z,83.56
2019-05-20T13:02:17.525Z,84.33
2019-05-20T13:04:50.875Z,84.53
2019-05-20T13:07:27.768Z,84.80
2019-05-20T13:10:03.078Z,84.01
2019-05-20T13:12:37.862Z,83.39
2019-05-20T13:15:16.373Z,83.35
2019-05-20T13:17:49.477Z,83.53
2019-05-20T13:20:23.847Z,82.73
2019-05-20T13:22:58.278Z,82.93
2019-05-20T13:25:32.377Z,82.53
2019-05-20T13:28:12.428Z,81.81
2019-05-20T13:30:46.446Z,81.66
2019-05-20T13:33:21.881Z,81.37
2019-05-20T13:35:55.552Z,81.65
2019-05-20T13:38:28.145Z,82.11
2019-05-20T13:41:01.692Z,81.99
2019-05-20T13:43:36.374Z,81.48
2019-05-20T13:46:08.996Z,81.50
2019-05-20T13:48:41.720Z,81.36
2019-05-20T13:51:16.535Z,80.92
2019-05-20T13:53:49.166Z,80.70
2019-05-20T13:56:23.551Z,80.59
2019-05-20T13:58:57.808Z,80.27
2019-05-20T14:01:34.169Z,80.50
2019-05-20T14:04:12.231Z,80.26
2019-05-20T14:06:47.097Z,80.07
2019-05-20T14:09:21.207Z,80.26
2019-05-20T14:11:56.051Z,80.27
2019-05-20T14:14:29.130Z,80.79
2019-05-20T14:17:07.498Z,80.89
2019-05-20T14:19:41.176Z,81.22
2019-05-20T14:22:14.954Z,81.69
2019-05-20T14:24:49.497Z,81.85
2019-05-20T14:27:22.257Z,81.31
2019-05-20T14:29:56.430Z,80.87
2019-05-20T14:32:32.562Z,81.29
2019-05-20T14:35:06.328Z,81.48
2019-05-20T14:37:39.949Z,81.69
2019-05-20T14:40:13.008Z,81.55
2019-05-20T14:42:45.760Z,81.56
2019-05-20T14:45:19.603Z,81.65
2019-05-20T14:47:56.153Z,81.34
2019-05-20T14:50:28.941Z,81.51
2019-05-20T14:53:03.284Z,81.58
2019-05-20T14:55:42.218Z,81.67
2019-05-20T14:58:26.337Z,81.50
2019-05-20T15:01:06.360Z,81.53
2019-05-20T15:04:08.135Z,81.37
2019-05-20T15:06:48.269Z,81.52
2019-05-20T15:09:29.164Z,81.76
2019-05-20T15:12:10.312Z,82.25
2019-05-20T15:14:44.849Z,82.63
2019-05-20T15:17:23.879Z,83.23
2019-05-20T15:20:00.648Z,83.33
2019-05-20T15:22:33.695Z,83.71
2019-05-20T15:25:08.989Z,84.03
2019-05-20T15:27:43.749Z,84.14
2019-05-20T15:30:21.752Z,84.15
2019-05-20T15:32:56.588Z,84.20
2019-05-20T15:35:32.284Z,84.21
2019-05-20T15:38:13.594Z,84.37
2019-05-20T15:40:49.499Z,84.43
2019-05-20T15:43:26.286Z,84.49
2019-05-20T15:46:03.322Z,84.39
2019-05-20T15:48:56.817Z,84.23
2019-05-20T15:51:42.519Z,83.13
2019-05-20T15:54:17.724Z,83.26
2019-05-20T15:56:53.464Z,83.62
2019-05-20T15:59:26.796Z,83.81
2019-05-20T16:02:01.273Z,83.98
2019-05-20T16:04:34.702Z,84.32
2019-05-20T16:07:14.044Z,84.58
2019-05-20T16:09:52.035Z,84.79
2019-05-20T16:12:25.463Z,85.22
2019-05-20T16:14:58.146Z,85.32
2019-05-20T16:17:33.829Z,85.40
2019-05-20T16:20:10.564Z,85.58
2019-05-20T16:22:47.618Z,85.75
2019-05-20T16:25:23.494Z,85.59
2019-05-20T16:27:58.550Z,85.36
2019-05-20T16:30:33.323Z,84.90
2019-05-20T16:33:08.772Z,85.16
2019-05-20T16:35:48.908Z,85.08
2019-05-20T16:38:22.969Z,84.98
2019-05-20T16:40:59.353Z,85.17
2019-05-20T16:43:35.105Z,85.46
2019-05-20T16:46:09.281Z,85.78
2019-05-20T16:48:46.535Z,85.63
2019-05-20T16:51:24.474Z,85.93
2019-05-20T16:54:01.251Z,86.13
2019-05-20T16:56:38.500Z,86.33
2019-05-20T16:59:13.553Z,86.25
2019-05-20T17:01:47.423Z,86.09
2019-05-20T17:04:22.225Z,86.61
2019-05-20T17:06:55.072Z,86.65
2019-05-20T17:09:28.965Z,86.85
2019-05-20T17:12:03.036Z,86.95
2019-05-20T17:14:37.910Z,87.09
2019-05-20T17:17:13.543Z,87.06
2019-05-20T17:19:49.470Z,86.95
2019-05-20T17:22:23.350Z,87.20
2019-05-20T17:24:59.491Z,87.30
2019-05-20T17:27:34.043Z,87.21
2019-05-20T17:30:16.913Z,87.29
2019-05-20T17:32:50.477Z,87.29
2019-05-20T17:35:25.959Z,87.40
2019-05-20T17:37:59.727Z,87.50
2019-05-20T17:40:34.379Z,87.61
2019-05-20T17:43:09.734Z,87.54
2019-05-20T17:45:46.177Z,87.69
2019-05-20T17:48:20.588Z,87.72
2019-05-20T17:50:55.059Z,87.72
2019-05-20T17:53:31.394Z,87.77
2019-05-20T17:56:05.078Z,87.98
2019-05-20T17:58:38.609Z,88.18
2019-05-20T18:01:15.882Z,88.17
2019-05-20T18:03:53.242Z,88.14
2019-05-20T18:06:35.496Z,88.03
2019-05-20T18:09:13.836Z,87.79
2019-05-20T18:11:54.879Z,87.97
2019-05-20T18:14:30.188Z,87.90
2019-05-20T18:17:06.346Z,87.97
2019-05-20T18:19:42.765Z,87.98
2019-05-20T18:22:18.534Z,88.12
2019-05-20T18:24:51.671Z,88.10
2019-05-20T18:27:27.225Z,88.21
2019-05-20T18:30:08.338Z,88.26
2019-05-20T18:32:48.176Z,88.47
2019-05-20T18:35:22.191Z,88.56
2019-05-20T18:37:59.710Z,88.50
2019-05-20T18:40:33.524Z,88.78
2019-05-20T18:43:13.026Z,89.14
2019-05-20T18:45:57.148Z,89.28
2019-05-20T18:48:32.066Z,89.49
2019-05-20T18:51:09.340Z,89.50
2019-05-20T18:53:45.864Z,89.76
2019-05-20T18:56:27.136Z,90.03
2019-05-20T18:59:01.305Z,90.13
2019-05-20T19:01:46.117Z,90.49
2019-05-20T19:04:34.895Z,90.71
2019-05-20T19:07:08.339Z,90.82
2019-05-20T19:09:42.630Z,90.93
2019-05-20T19:12:16.628Z,90.97
2019-05-20T19:14:50.756Z,91.11
2019-05-20T19:17:27.486Z,91.34
2019-05-20T19:20:02.615Z,91.52
2019-05-20T19:22:37.370Z,91.56
2019-05-20T19:25:14.191Z,91.43
2019-05-20T19:27:47.806Z,91.52
2019-05-20T19:30:21.321Z,91.61
2019-05-20T19:32:57.262Z,91.45
2019-05-20T19:35:43.002Z,91.81
2019-05-20T19:38:18.505Z,91.67
2019-05-20T19:40:56.027Z,91.02
2019-05-20T19:43:33.706Z,91.34
2019-05-20T19:46:10.327Z,91.63
2019-05-20T19:48:43.734Z,92.13
2019-05-20T19:51:20.588Z,92.41
2019-05-20T19:53:54.488Z,92.62
2019-05-20T19:56:28.725Z,92.91
2019-05-20T19:59:02.471Z,93.13
2019-05-20T20:01:36.444Z,93.35
2019-05-20T20:04:14.847Z,93.56
2019-05-20T20:06:47.657Z,93.78
2019-05-20T20:09:21.917Z,93.89
2019-05-20T20:12:09.790Z,94.10
2019-05-20T20:14:52.354Z,94.32
2019-05-20T20:17:31.925Z,94.35
2019-05-20T20:20:07.636Z,94.47
2019-05-20T20:22:42.842Z,94.80
2019-05-20T20:25:17.201Z,95.01
2019-05-20T20:27:51.954Z,95.12
2019-05-20T20:30:25.157Z,95.28
2019-05-20T20:33:01.985Z,95.32
2019-05-20T20:35:38.327Z,95.69
2019-05-20T20:38:11.959Z,95.80
2019-05-20T20:40:46.675Z,95.88
2019-05-20T20:43:20.833Z,95.89
2019-05-20T20:45:57.062Z,96.24
2019-05-20T20:48:33.340Z,96.33
2019-05-20T20:51:06.119Z,96.43
2019-05-20T20:53:43.733Z,96.34
2019-05-20T20:56:25.303Z,96.50
2019-05-20T20:58:58.366Z,96.82
2019-05-20T21:01:34.606Z,97.00
2019-05-20T21:04:18.331Z,97.31
2019-05-20T21:07:07.131Z,97.72
2019-05-20T21:09:42.825Z,98.09
2019-05-20T21:12:18.643Z,98.49
2019-05-20T21:14:56.114Z,98.87
2019-05-20T21:17:30.823Z,99.29
2019-05-20T21:20:06.033Z,99.91
2019-05-20T21:22:39.757Z,100.00
2019-05-20T21:25:13.528Z,100.00
2019-05-20T21:27:46.322Z,100.00
2019-05-20T21:30:19.737Z,100.00
2019-05-20T21:33:08.268Z,100.00
2019-05-20T21:35:45.190Z,100.00
2019-05-20T21:38:20.630Z,100.00
2019-05-20T21:40:55.198Z,100.00
2019-05-20T21:43:27.674Z,100.00
2019-05-20T21:46:01.883Z,100.00
2019-05-20T21:48:36.000Z,100.00
2019-05-20T21:51:10.639Z,100.00
2019-05-20T21:53:45.042Z,100.00
2019-05-20T21:56:23.792Z,100.00
2019-05-20T21:58:56.918Z,100.00
2019-05-20T22:01:31.439Z,100.00
2019-05-20T22:04:08.391Z,100.00
2019-05-20T22:06:41.080Z,100.00
2019-05-20T22:09:14.653Z,100.00
2019-05-20T22:11:47.495Z,100.00
2019-05-20T22:14:21.059Z,100.00
2019-05-20T22:16:55.796Z,100.00
2019-05-20T22:19:29.428Z,100.00
2019-05-20T22:22:22.548Z,100.00
2019-05-20T22:24:55.423Z,100.00
2019-05-20T22:27:28.194Z,100.00
2019-05-20T22:30:04.393Z,100.00
2019-05-20T22:32:37.555Z,100.00
2019-05-20T22:35:10.342Z,100.00
2019-05-20T22:37:42.946Z,100.00
2019-05-20T22:40:20.047Z,100.00
2019-05-20T22:42:55.012Z,100.00
2019-05-20T22:45:28.622Z,100.00
2019-05-20T22:48:01.504Z,100.00
2019-05-20T22:50:33.981Z,100.00
2019-05-20T22:53:08.765Z,100.00
2019-05-20T22:55:42.685Z,100.00
2019-05-20T22:58:22.146Z,100.00
2019-05-20T23:00:56.535Z,100.00
2019-05-20T23:03:29.899Z,100.00
2019-05-20T23:06:02.592Z,100.00
2019-05-20T23:08:35.237Z,100.00
2019-05-20T23:11:07.767Z,100.00
2019-05-20T23:13:41.185Z,100.00
2019-05-20T23:16:13.728Z,100.00
2019-05-20T23:18:49.707Z,100.00
2019-05-20T23:21:23.964Z,100.00
2019-05-20T23:23:56.558Z,100.00
2019-05-20T23:26:30.078Z,100.00
2019-05-20T23:29:03.434Z,100.00
2019-05-20T23:31:35.996Z,100.00
2019-05-20T23:34:13.138Z,100.00
2019-05-20T23:36:46.710Z,100.00
2019-05-20T23:39:20.711Z,100.00
2019-05-20T23:41:53.226Z,100.00
2019-05-20T23:44:25.771Z,100.00
2019-05-20T23:46:58.431Z,100.00
2019-05-20T23:49:31.758Z,100.00
2019-05-20T23:52:04.193Z,100.00
2019-05-20T23:54:37.022Z,100.00
2019-05-20T23:57:10.674Z,100.00
2019-05-20T23:59:43.746Z,100.00
